createdAt,value
2018-05-12T00:01:28.949Z,23.43
2018-05-12T00:03:56.589Z,23.17
2018-05-12T00:06:24.087Z,23.60
2018-05-12T00:08:51.629Z,24.73
2018-05-12T00:11:19.142Z,24.40
2018-05-12T00:13:46.678Z,25.80
2018-05-12T00:16:14.190Z,26.90
2018-05-12T00:18:41.718Z,24.57
2018-05-12T00:21:09.234Z,25.63
2018-05-12T00:23:36.776Z,24.83
2018-05-12T00:26:04.411Z,25.50
2018-05-12T00:28:31.969Z,25.33
2018-05-12T00:30:59.478Z,24.17
2018-05-12T00:33:27.010Z,25.43
2018-05-12T00:35:54.511Z,26.20
2018-05-12T00:38:22.362Z,26.20
2018-05-12T00:40:50.651Z,25.80
2018-05-12T00:43:18.186Z,24.83
2018-05-12T00:45:45.691Z,24.63
2018-05-12T00:48:13.244Z,24.90
2018-05-12T00:50:40.739Z,23.47
2018-05-12T00:53:08.306Z,24.67
2018-05-12T00:55:35.850Z,24.77
2018-05-12T00:58:03.361Z,24.53
2018-05-12T01:00:30.858Z,25.30
2018-05-12T01:02:59.174Z,25.20
2018-05-12T01:05:26.683Z,24.90
2018-05-12T01:07:54.222Z,23.40
2018-05-12T01:10:21.719Z,27.07
2018-05-12T01:12:50.040Z,27.20
2018-05-12T01:15:17.547Z,25.70
2018-05-12T01:17:45.090Z,27.20
2018-05-12T01:20:12.588Z,25.37
2018-05-12T01:22:40.123Z,26.90
2018-05-12T01:25:07.635Z,27.27
2018-05-12T01:27:35.169Z,27.57
2018-05-12T01:30:02.680Z,28.50
2018-05-12T01:32:30.215Z,26.73
2018-05-12T01:34:58.680Z,22.97
2018-05-12T01:37:26.270Z,27.97
2018-05-12T01:39:53.787Z,27.03
2018-05-12T01:42:21.332Z,26.77
2018-05-12T01:44:48.829Z,26.70
2018-05-12T01:47:16.468Z,24.80
2018-05-12T01:49:43.966Z,24.27
2018-05-12T01:52:11.510Z,25.10
2018-05-12T01:54:39.007Z,26.70
2018-05-12T01:57:07.323Z,24.13
2018-05-12T01:59:34.818Z,23.43
2018-05-12T02:02:02.311Z,22.43
2018-05-12T02:04:29.842Z,24.63
2018-05-12T02:06:57.343Z,26.67
2018-05-12T02:09:24.884Z,25.87
2018-05-12T02:11:52.385Z,26.13
2018-05-12T02:14:19.919Z,24.30
2018-05-12T02:16:47.430Z,25.67
2018-05-12T02:19:14.986Z,26.73
2018-05-12T02:21:42.532Z,26.40
2018-05-12T02:24:10.064Z,28.50
2018-05-12T02:26:37.564Z,25.73
2018-05-12T02:29:05.099Z,25.20
2018-05-12T02:31:32.604Z,30.67
2018-05-12T02:34:00.147Z,29.10
2018-05-12T02:36:28.591Z,26.60
2018-05-12T02:38:56.127Z,29.57
2018-05-12T02:41:23.668Z,28.70
2018-05-12T02:43:51.171Z,28.27
2018-05-12T02:46:18.712Z,27.17
2018-05-12T02:48:46.223Z,27.10
2018-05-12T02:51:13.776Z,26.50
2018-05-12T02:53:41.270Z,28.20
2018-05-12T02:56:08.815Z,27.63
2018-05-12T02:58:36.359Z,25.37
2018-05-12T03:01:03.898Z,27.43
2018-05-12T03:03:31.391Z,26.70
2018-05-12T03:05:58.929Z,26.10
2018-05-12T03:08:26.428Z,26.90
2018-05-12T03:10:53.986Z,24.67
2018-05-12T03:13:21.501Z,27.70
2018-05-12T03:15:48.997Z,29.13
2018-05-12T03:18:16.627Z,28.40
2018-05-12T03:20:44.066Z,26.27
2018-05-12T03:23:11.637Z,26.50
2018-05-12T03:25:39.135Z,28.53
2018-05-12T03:28:06.667Z,28.13
2018-05-12T03:30:34.170Z,28.43
2018-05-12T03:33:01.761Z,29.57
2018-05-12T03:35:29.306Z,25.23
2018-05-12T03:37:56.847Z,28.33
2018-05-12T03:40:24.351Z,27.50
2018-05-12T03:42:51.886Z,30.53
2018-05-12T03:45:19.380Z,32.17
2018-05-12T03:47:46.910Z,30.20
2018-05-12T03:50:14.422Z,32.73
2018-05-12T03:52:43.020Z,33.03
2018-05-12T03:55:10.692Z,32.47
2018-05-12T03:57:38.214Z,33.77
2018-05-12T04:00:06.646Z,34.50
2018-05-12T04:02:34.055Z,34.07
2018-05-12T04:05:13.473Z,35.63
2018-05-12T04:07:52.722Z,37.00
2018-05-12T04:13:21.878Z,34.63
2018-05-12T04:15:49.430Z,36.70
2018-05-12T04:18:16.945Z,34.50
2018-05-12T04:20:44.512Z,37.20
2018-05-12T04:23:12.787Z,36.50
2018-05-12T04:25:41.088Z,36.27
2018-05-12T04:28:08.592Z,37.67
2018-05-12T04:30:36.133Z,36.77
2018-05-12T04:33:03.644Z,41.00
2018-05-12T04:35:31.957Z,36.90
2018-05-12T04:37:59.485Z,39.50
2018-05-12T04:40:27.013Z,40.33
2018-05-12T04:42:54.538Z,41.00
2018-05-12T04:45:22.084Z,43.37
2018-05-12T04:47:49.591Z,41.70
2018-05-12T04:50:17.910Z,43.30
2018-05-12T04:52:45.443Z,44.53
2018-05-12T04:55:12.949Z,47.00
2018-05-12T04:57:40.478Z,47.70
2018-05-12T05:00:08.739Z,45.03
2018-05-12T05:02:37.049Z,44.17
2018-05-12T05:05:04.561Z,44.50
2018-05-12T05:07:32.106Z,44.97
2018-05-12T05:09:59.610Z,45.00
2018-05-12T05:12:27.142Z,42.97
2018-05-12T05:14:54.642Z,44.40
2018-05-12T05:17:22.177Z,43.67
2018-05-12T05:19:50.451Z,46.90
2018-05-12T05:22:18.764Z,44.20
2018-05-12T05:24:46.264Z,44.73
2018-05-12T05:27:14.565Z,41.50
2018-05-12T05:29:42.067Z,43.17
2018-05-12T05:32:09.632Z,41.47
2018-05-12T05:34:37.148Z,42.40
2018-05-12T05:37:04.639Z,44.47
2018-05-12T05:39:32.174Z,42.40
2018-05-12T05:41:59.669Z,44.63
2018-05-12T05:44:27.218Z,40.53
2018-05-12T05:46:54.711Z,40.70
2018-05-12T05:49:22.251Z,42.10
2018-05-12T05:51:49.764Z,45.30
2018-05-12T05:54:17.297Z,43.30
2018-05-12T05:56:45.585Z,38.50
2018-05-12T05:59:13.925Z,39.37
2018-05-12T06:01:41.477Z,39.60
2018-05-12T06:04:09.022Z,39.67
2018-05-12T06:06:36.595Z,39.40
2018-05-12T06:09:04.185Z,41.00
2018-05-12T06:11:31.727Z,39.17
2018-05-12T06:14:00.126Z,41.30
2018-05-12T06:16:27.640Z,40.57
2018-05-12T06:18:55.193Z,40.30
2018-05-12T06:21:22.739Z,40.70
2018-05-12T06:23:50.238Z,42.87
2018-05-12T06:26:17.774Z,41.00
2018-05-12T06:28:45.437Z,40.57
2018-05-12T06:31:12.998Z,42.17
2018-05-12T06:33:40.502Z,43.87
2018-05-12T06:36:08.064Z,40.27
2018-05-12T06:38:35.613Z,41.17
2018-05-12T06:41:03.151Z,42.40
2018-05-12T06:43:30.658Z,39.53
2018-05-12T06:45:58.187Z,38.30
2018-05-12T06:48:25.687Z,36.97
2018-05-12T06:50:53.227Z,38.60
2018-05-12T06:53:20.735Z,36.20
2018-05-12T06:55:48.258Z,37.20
2018-05-12T06:58:15.763Z,37.03
2018-05-12T07:00:43.306Z,38.47
2018-05-12T07:03:10.848Z,35.80
2018-05-12T07:05:38.386Z,35.13
2018-05-12T07:08:05.907Z,37.37
2018-05-12T07:10:33.474Z,35.03
2018-05-12T07:13:00.982Z,36.20
2018-05-12T07:15:28.531Z,35.20
2018-05-12T07:17:56.069Z,37.80
2018-05-12T07:20:23.570Z,38.60
2018-05-12T07:22:51.115Z,35.67
2018-05-12T07:25:18.618Z,34.60
2018-05-12T07:27:46.178Z,34.27
2018-05-12T07:30:13.675Z,36.70
2018-05-12T07:32:41.978Z,36.73
2018-05-12T07:35:09.482Z,34.97
2018-05-12T07:37:37.031Z,33.13
2018-05-12T07:40:04.659Z,34.50
2018-05-12T07:42:32.263Z,34.50
2018-05-12T07:44:59.765Z,34.10
2018-05-12T07:47:27.331Z,33.30
2018-05-12T07:49:54.845Z,33.27
2018-05-12T07:52:23.122Z,34.30
2018-05-12T07:54:52.158Z,34.27
2018-05-12T07:57:19.677Z,36.23
2018-05-12T07:59:47.271Z,36.20
2018-05-12T08:02:14.774Z,33.97
2018-05-12T08:04:42.330Z,36.47
2018-05-12T08:07:09.838Z,36.10
2018-05-12T08:09:37.378Z,34.47
2018-05-12T08:12:04.899Z,35.10
2018-05-12T08:14:32.478Z,32.80
2018-05-12T08:16:59.990Z,34.17
2018-05-12T08:19:27.774Z,35.30
2018-05-12T08:21:55.298Z,33.37
2018-05-12T08:24:22.842Z,37.50
2018-05-12T08:26:51.156Z,34.27
2018-05-12T08:29:18.689Z,33.70
2018-05-12T08:31:46.227Z,36.07
2018-05-12T08:34:14.517Z,35.63
2018-05-12T08:36:42.085Z,32.87
2018-05-12T08:39:09.595Z,32.50
2018-05-12T08:41:37.148Z,33.20
2018-05-12T08:44:04.642Z,34.10
2018-05-12T08:46:32.191Z,32.77
2018-05-12T08:48:59.695Z,33.10
2018-05-12T08:51:27.227Z,36.00
2018-05-12T08:53:54.728Z,30.87
2018-05-12T08:56:22.285Z,30.83
2018-05-12T08:58:49.794Z,33.50
2018-05-12T09:01:17.394Z,32.23
2018-05-12T09:03:44.889Z,32.90
2018-05-12T09:06:12.423Z,30.70
2018-05-12T09:08:39.935Z,30.83
2018-05-12T09:11:08.263Z,32.33
2018-05-12T09:13:35.771Z,31.67
2018-05-12T09:16:03.283Z,27.67
2018-05-12T09:18:30.835Z,30.97
2018-05-12T09:20:58.404Z,30.20
2018-05-12T09:23:25.918Z,26.37
2018-05-12T09:25:54.260Z,29.50
2018-05-12T09:28:21.769Z,31.33
2018-05-12T09:30:49.448Z,28.47
2018-05-12T09:33:17.042Z,31.10
2018-05-12T09:35:46.093Z,29.80
2018-05-12T09:38:13.611Z,30.07
2018-05-12T09:40:41.320Z,28.60
2018-05-12T09:43:08.819Z,29.47
2018-05-12T09:45:36.387Z,27.27
2018-05-12T09:48:03.892Z,28.93
2018-05-12T09:50:31.484Z,29.30
2018-05-12T09:52:59.019Z,25.63
2018-05-12T09:55:26.568Z,23.60
2018-05-12T09:57:54.058Z,22.20
2018-05-12T10:00:25.553Z,27.90
2018-05-12T10:02:53.895Z,25.23
2018-05-12T10:05:21.430Z,24.07
2018-05-12T10:07:48.939Z,24.80
2018-05-12T10:10:17.268Z,26.33
2018-05-12T10:12:44.798Z,25.53
2018-05-12T10:15:12.343Z,24.67
2018-05-12T10:17:39.858Z,23.53
2018-05-12T10:20:07.444Z,22.60
2018-05-12T10:22:35.890Z,22.03
2018-05-12T10:25:03.516Z,22.57
2018-05-12T10:27:31.159Z,24.20
2018-05-12T10:29:58.722Z,26.60
2018-05-12T10:32:27.336Z,27.27
2018-05-12T10:34:54.838Z,29.40
2018-05-12T10:37:22.428Z,25.10
2018-05-12T10:39:49.919Z,26.50
2018-05-12T10:42:17.587Z,27.37
2018-05-12T10:44:45.111Z,26.47
2018-05-12T10:47:13.418Z,24.67
2018-05-12T10:49:40.920Z,25.53
2018-05-12T10:52:08.456Z,22.53
2018-05-12T10:54:35.963Z,22.70
2018-05-12T10:57:04.280Z,26.47
2018-05-12T10:59:31.798Z,24.70
2018-05-12T11:01:59.378Z,25.37
2018-05-12T11:04:26.872Z,24.63
2018-05-12T11:06:54.606Z,23.03
2018-05-12T11:09:22.140Z,20.37
2018-05-12T11:11:50.551Z,20.83
2018-05-12T11:14:18.080Z,21.57
2018-05-12T11:16:45.636Z,19.53
2018-05-12T11:19:13.438Z,25.53
2018-05-12T11:21:41.220Z,22.57
2018-05-12T11:24:08.540Z,22.37
2018-05-12T11:26:36.296Z,22.10
2018-05-12T11:29:03.821Z,21.63
2018-05-12T11:31:31.364Z,20.07
2018-05-12T11:33:58.891Z,17.20
2018-05-12T11:36:26.975Z,18.00
2018-05-12T11:38:54.497Z,19.80
2018-05-12T11:41:21.998Z,18.97
2018-05-12T11:43:49.542Z,20.87
2018-05-12T11:46:17.098Z,23.13
2018-05-12T11:48:44.625Z,18.70
2018-05-12T11:51:12.179Z,16.93
2018-05-12T11:53:40.499Z,15.20
2018-05-12T11:56:08.006Z,15.63
2018-05-12T11:58:35.617Z,16.53
2018-05-12T12:01:03.139Z,18.33
2018-05-12T12:03:30.765Z,17.70
2018-05-12T12:05:58.561Z,18.97
2018-05-12T12:08:26.837Z,15.80
2018-05-12T12:10:55.151Z,15.90
2018-05-12T12:13:22.666Z,16.87
2018-05-12T12:15:50.204Z,18.50
2018-05-12T12:18:17.724Z,15.10
2018-05-12T12:20:45.281Z,17.77
2018-05-12T12:23:12.848Z,17.80
2018-05-12T12:25:40.406Z,19.00
2018-05-12T12:28:07.917Z,20.40
2018-05-12T12:30:36.248Z,19.03
2018-05-12T12:33:03.761Z,15.00
2018-05-12T12:35:31.319Z,13.37
2018-05-12T12:37:58.861Z,16.00
2018-05-12T12:40:26.440Z,18.30
2018-05-12T12:42:53.975Z,16.70
2018-05-12T12:45:21.538Z,15.73
2018-05-12T12:47:49.060Z,15.40
2018-05-12T12:50:16.615Z,18.17
2018-05-12T12:52:44.115Z,17.43
2018-05-12T12:55:11.687Z,16.50
2018-05-12T12:57:39.982Z,16.03
2018-05-12T13:00:07.525Z,16.70
2018-05-12T13:02:35.070Z,15.93
2018-05-12T13:05:02.591Z,16.73
2018-05-12T13:07:30.151Z,15.80
2018-05-12T13:09:57.659Z,14.80
2018-05-12T13:12:25.968Z,15.03
2018-05-12T13:14:53.478Z,16.03
2018-05-12T13:17:22.546Z,14.80
2018-05-12T13:19:50.086Z,15.77
2018-05-12T13:22:17.646Z,16.53
2018-05-12T13:24:45.163Z,15.13
2018-05-12T13:27:12.808Z,15.30
2018-05-12T13:29:40.352Z,13.50
2018-05-12T13:32:07.906Z,14.70
2018-05-12T13:34:35.484Z,12.80
2018-05-12T13:37:03.878Z,14.30
2018-05-12T13:39:31.423Z,14.47
2018-05-12T13:41:58.967Z,11.93
2018-05-12T13:44:26.485Z,10.83
2018-05-12T13:46:54.042Z,11.00
2018-05-12T13:49:21.550Z,10.67
2018-05-12T13:51:49.092Z,10.10
2018-05-12T13:54:16.666Z,10.70
2018-05-12T13:56:44.213Z,10.63
2018-05-12T13:59:11.729Z,10.43
2018-05-12T14:01:40.047Z,10.60
2018-05-12T14:04:07.592Z,11.03
2018-05-12T14:06:35.119Z,11.30
2018-05-12T14:09:03.433Z,12.07
2018-05-12T14:11:30.946Z,11.83
2018-05-12T14:13:58.494Z,10.60
2018-05-12T14:16:25.991Z,10.77
2018-05-12T14:18:53.553Z,10.10
2018-05-12T14:21:21.074Z,10.10
2018-05-12T14:23:48.607Z,9.00
2018-05-12T14:26:16.135Z,9.40
2018-05-12T14:28:43.683Z,9.50
2018-05-12T14:31:11.242Z,9.93
2018-05-12T14:33:39.106Z,9.17
2018-05-12T14:36:06.614Z,9.20
2018-05-12T14:38:34.133Z,10.50
2018-05-12T14:41:01.678Z,10.30
2018-05-12T14:43:29.187Z,8.47
2018-05-12T14:45:56.726Z,9.73
2018-05-12T14:48:24.222Z,11.20
2018-05-12T14:50:51.783Z,11.17
2018-05-12T14:53:19.291Z,11.30
2018-05-12T14:55:46.842Z,11.10
2018-05-12T14:58:14.348Z,9.67
2018-05-12T15:00:41.975Z,11.23
2018-05-12T15:03:09.479Z,10.40
2018-05-12T15:05:37.012Z,10.70
2018-05-12T15:08:04.518Z,12.37
2018-05-12T15:10:32.054Z,10.93
2018-05-12T15:12:59.560Z,12.33
2018-05-12T15:15:27.120Z,9.73
2018-05-12T15:17:54.636Z,11.20
2018-05-12T15:20:22.169Z,10.60
2018-05-12T15:22:49.671Z,10.90
2018-05-12T15:25:17.217Z,10.57
2018-05-12T15:27:44.735Z,10.10
2018-05-12T15:30:12.248Z,10.37
2018-05-12T15:32:39.789Z,10.23
2018-05-12T15:35:07.290Z,10.00
2018-05-12T15:37:34.873Z,9.60
2018-05-12T15:40:02.418Z,10.50
2018-05-12T15:42:30.019Z,11.67
2018-05-12T15:44:58.083Z,9.87
2018-05-12T15:47:25.611Z,10.80
2018-05-12T15:49:53.143Z,10.20
2018-05-12T15:52:20.667Z,10.57
2018-05-12T15:54:48.165Z,9.87
2018-05-12T15:57:17.338Z,9.77
2018-05-12T15:59:44.856Z,10.33
2018-05-12T16:02:12.359Z,10.67
2018-05-12T16:04:40.753Z,10.03
2018-05-12T16:07:08.280Z,11.13
2018-05-12T16:09:35.825Z,10.40
2018-05-12T16:12:04.408Z,10.30
2018-05-12T16:14:31.912Z,10.20
2018-05-12T16:17:00.192Z,11.67
2018-05-12T16:19:27.750Z,10.83
2018-05-12T16:21:55.250Z,10.03
2018-05-12T16:24:23.551Z,10.73
2018-05-12T16:26:51.064Z,10.60
2018-05-12T16:29:18.632Z,11.07
2018-05-12T16:31:46.133Z,11.10
2018-05-12T16:34:13.687Z,11.77
2018-05-12T16:36:41.187Z,11.17
2018-05-12T16:39:08.737Z,12.43
2018-05-12T16:41:37.040Z,11.40
2018-05-12T16:44:04.601Z,11.37
2018-05-12T16:46:32.117Z,10.87
2018-05-12T16:49:00.462Z,12.10
2018-05-12T16:51:29.507Z,11.00
2018-05-12T16:53:57.843Z,13.17
2018-05-12T16:56:25.360Z,12.23
2018-05-12T16:58:52.877Z,10.60
2018-05-12T17:01:20.474Z,11.67
2018-05-12T17:03:47.973Z,11.20
2018-05-12T17:06:15.520Z,12.60
2018-05-12T17:08:43.029Z,11.97
2018-05-12T17:11:10.567Z,11.60
2018-05-12T17:13:38.084Z,12.17
2018-05-12T17:16:05.658Z,11.60
2018-05-12T17:18:33.246Z,12.40
2018-05-12T17:21:00.808Z,12.63
2018-05-12T17:23:28.338Z,12.70
2018-05-12T17:25:55.898Z,13.30
2018-05-12T17:28:23.407Z,12.60
2018-05-12T17:30:51.731Z,12.17
2018-05-12T17:33:19.283Z,11.63
2018-05-12T17:35:46.927Z,12.97
2018-05-12T17:38:14.432Z,12.90
2018-05-12T17:40:42.137Z,12.93
2018-05-12T17:43:09.647Z,13.00
2018-05-12T17:45:37.204Z,14.57
2018-05-12T17:48:04.730Z,13.17
2018-05-12T17:50:32.274Z,13.87
2018-05-12T17:52:59.835Z,13.27
2018-05-12T17:55:27.346Z,14.70
2018-05-12T17:57:54.923Z,12.60
2018-05-12T18:00:23.154Z,13.60
2018-05-12T18:02:50.750Z,13.13
2018-05-12T18:05:18.247Z,15.83
2018-05-12T18:07:45.922Z,14.53
2018-05-12T18:10:13.422Z,15.17
2018-05-12T18:12:40.953Z,14.13
2018-05-12T18:15:08.474Z,14.30
2018-05-12T18:17:36.027Z,13.67
2018-05-12T18:20:04.289Z,14.40
2018-05-12T18:22:31.908Z,13.87
2018-05-12T18:24:59.373Z,15.00
2018-05-12T18:27:26.871Z,15.40
2018-05-12T18:29:55.187Z,15.20
2018-05-12T18:32:22.690Z,14.80
2018-05-12T18:34:50.226Z,16.07
2018-05-12T18:37:17.749Z,14.90
2018-05-12T18:39:45.294Z,15.80
2018-05-12T18:42:12.811Z,14.77
2018-05-12T18:44:40.374Z,15.27
2018-05-12T18:47:07.903Z,15.60
2018-05-12T18:49:35.453Z,15.50
2018-05-12T18:52:02.968Z,16.50
2018-05-12T18:54:30.790Z,15.43
2018-05-12T18:56:58.314Z,17.17
2018-05-12T18:59:25.850Z,16.60
2018-05-12T19:01:53.350Z,16.60
2018-05-12T19:04:20.902Z,14.70
2018-05-12T19:06:48.428Z,17.00
2018-05-12T19:09:15.976Z,17.53
2018-05-12T19:11:43.478Z,18.27
2018-05-12T19:14:11.015Z,16.53
2018-05-12T19:16:39.291Z,17.03
2018-05-12T19:19:07.629Z,16.73
2018-05-12T19:21:35.126Z,20.93
2018-05-12T19:24:02.639Z,18.67
2018-05-12T19:26:30.184Z,24.37
2018-05-12T19:28:57.684Z,35.90
2018-05-12T19:31:25.217Z,20.13
2018-05-12T19:33:52.757Z,19.70
2018-05-12T19:36:20.270Z,19.80
2018-05-12T19:38:48.563Z,28.83
2018-05-12T19:41:16.111Z,27.53
2018-05-12T19:43:44.747Z,24.57
2018-05-12T19:46:12.248Z,20.97
2018-05-12T19:48:39.752Z,20.47
2018-05-12T19:51:07.283Z,19.07
2018-05-12T19:53:34.791Z,19.93
2018-05-12T19:56:02.329Z,19.97
2018-05-12T19:58:29.833Z,18.63
2018-05-12T20:00:57.396Z,19.77
2018-05-12T20:03:24.915Z,20.17
2018-05-12T20:05:52.462Z,20.40
2018-05-12T20:08:19.976Z,20.27
2018-05-12T20:10:47.519Z,20.37
2018-05-12T20:13:15.014Z,19.93
2018-05-12T20:15:42.562Z,21.50
2018-05-12T20:18:10.068Z,22.10
2018-05-12T20:20:37.574Z,21.87
2018-05-12T20:23:05.117Z,22.00
2018-05-12T20:25:32.612Z,20.80
2018-05-12T20:28:00.168Z,20.70
2018-05-12T20:30:27.682Z,21.50
2018-05-12T20:32:55.233Z,22.73
2018-05-12T20:35:22.754Z,23.60
2018-05-12T20:37:50.286Z,22.60
2018-05-12T20:40:17.798Z,24.20
2018-05-12T20:42:45.370Z,23.53
2018-05-12T20:45:12.877Z,23.03
2018-05-12T20:47:41.200Z,24.10
2018-05-12T20:50:08.750Z,23.20
2018-05-12T20:52:36.310Z,23.90
2018-05-12T20:55:03.823Z,23.50
2018-05-12T20:57:31.387Z,24.27
2018-05-12T20:59:59.665Z,23.80
2018-05-12T21:02:27.969Z,23.83
2018-05-12T21:04:55.535Z,26.27
2018-05-12T21:07:23.043Z,25.53
2018-05-12T21:09:50.631Z,26.37
2018-05-12T21:12:18.136Z,26.80
2018-05-12T21:14:45.683Z,30.20
2018-05-12T21:17:13.196Z,26.47
2018-05-12T21:19:40.934Z,26.37
2018-05-12T21:22:08.427Z,27.80
2018-05-12T21:24:36.747Z,29.07
2018-05-12T21:27:04.254Z,26.90
2018-05-12T21:29:31.806Z,27.90
2018-05-12T21:32:00.130Z,27.80
2018-05-12T21:34:27.702Z,28.33
2018-05-12T21:36:55.224Z,29.13
2018-05-12T21:39:23.493Z,29.20
2018-05-12T21:41:51.808Z,28.13
2018-05-12T21:44:19.314Z,30.27
2018-05-12T21:46:46.862Z,28.20
2018-05-12T21:49:14.388Z,30.40
2018-05-12T21:51:41.939Z,29.50
2018-05-12T21:54:09.453Z,29.97
2018-05-12T21:56:37.767Z,28.87
2018-05-12T21:59:05.322Z,28.23
2018-05-12T22:01:32.830Z,30.20
2018-05-12T22:04:00.424Z,30.60
2018-05-12T22:06:28.014Z,31.47
2018-05-12T22:08:55.550Z,33.77
2018-05-12T22:11:23.053Z,29.00
2018-05-12T22:13:50.597Z,31.53
2018-05-12T22:16:18.111Z,30.77
2018-05-12T22:18:45.641Z,28.77
2018-05-12T22:21:13.137Z,31.20
2018-05-12T22:23:41.452Z,30.97
2018-05-12T22:26:08.962Z,29.90
2018-05-12T22:28:36.626Z,32.57
2018-05-12T22:31:04.132Z,30.47
2018-05-12T22:33:31.675Z,29.80
2018-05-12T22:35:59.170Z,31.90
2018-05-12T22:38:26.703Z,28.90
2018-05-12T22:40:54.207Z,33.47
2018-05-12T22:43:21.746Z,31.70
2018-05-12T22:45:49.239Z,32.00
2018-05-12T22:48:16.768Z,31.07
2018-05-12T22:50:44.298Z,32.47
2018-05-12T22:53:11.877Z,31.67
2018-05-12T22:55:39.378Z,32.73
2018-05-12T22:58:07.701Z,32.10
2018-05-12T23:00:35.207Z,31.30
2018-05-12T23:03:02.702Z,35.93
2018-05-12T23:05:30.329Z,31.70
2018-05-12T23:07:57.830Z,32.37
2018-05-12T23:10:25.360Z,36.90
2018-05-12T23:12:52.871Z,35.47
2018-05-12T23:15:20.425Z,38.53
2018-05-12T23:17:47.931Z,32.40
2018-05-12T23:20:15.477Z,33.57
2018-05-12T23:22:47.844Z,31.73
2018-05-12T23:25:15.389Z,37.43
2018-05-12T23:27:42.900Z,32.87
2018-05-12T23:30:10.442Z,30.47
2018-05-12T23:32:37.951Z,29.70
2018-05-12T23:35:05.487Z,36.30
2018-05-12T23:37:32.991Z,31.13
2018-05-12T23:40:01.306Z,30.20
2018-05-12T23:42:28.827Z,29.90
2018-05-12T23:44:56.429Z,31.70
2018-05-12T23:47:23.922Z,31.73
2018-05-12T23:49:51.462Z,30.90
2018-05-12T23:52:18.977Z,31.43
2018-05-12T23:54:47.291Z,31.20
2018-05-12T23:57:14.841Z,31.60
2018-05-12T23:59:42.346Z,33.80
